sensor_id;sensor_type;location;lat;lon;timestamp;P1;durP1;ratioP1;P2;durP2;ratioP2
21591;SDS011;10958;50.892;3.992;2022-11-04T00:01:15;3.35;;;1.88;;
21591;SDS011;10958;50.892;3.992;2022-11-04T00:03:44;6.57;;;1.95;;
21591;SDS011;10958;50.892;3.992;2022-11-04T00:06:10;2.47;;;1.60;;
21591;SDS011;10958;50.892;3.992;2022-11-04T00:08:38;5.45;;;1.70;;
21591;SDS011;10958;50.892;3.992;2022-11-04T00:11:04;6.20;;;2.15;;
21591;SDS011;10958;50.892;3.992;2022-11-04T00:13:48;10.02;;;2.25;;
21591;SDS011;10958;50.892;3.992;2022-11-04T00:16:15;3.58;;;1.85;;
21591;SDS011;10958;50.892;3.992;2022-11-04T00:19:02;4.68;;;1.67;;
21591;SDS011;10958;50.892;3.992;2022-11-04T00:21:27;4.93;;;1.65;;
21591;SDS011;10958;50.892;3.992;2022-11-04T00:24:12;9.43;;;2.10;;
21591;SDS011;10958;50.892;3.992;2022-11-04T00:27:17;5.53;;;1.73;;
21591;SDS011;10958;50.892;3.992;2022-11-04T00:30:03;7.32;;;1.98;;
21591;SDS011;10958;50.892;3.992;2022-11-04T00:32:32;3.55;;;2.13;;
21591;SDS011;10958;50.892;3.992;2022-11-04T00:35:17;6.57;;;2.30;;
21591;SDS011;10958;50.892;3.992;2022-11-04T00:37:43;9.25;;;2.15;;
21591;SDS011;10958;50.892;3.992;2022-11-04T00:40:10;6.95;;;1.67;;
21591;SDS011;10958;50.892;3.992;2022-11-04T00:42:39;6.65;;;2.20;;
21591;SDS011;10958;50.892;3.992;2022-11-04T00:45:10;6.68;;;1.70;;
21591;SDS011;10958;50.892;3.992;2022-11-04T00:47:35;9.30;;;2.15;;
21591;SDS011;10958;50.892;3.992;2022-11-04T00:50:01;9.05;;;1.90;;
21591;SDS011;10958;50.892;3.992;2022-11-04T00:52:27;4.53;;;1.50;;
21591;SDS011;10958;50.892;3.992;2022-11-04T00:54:53;4.53;;;1.83;;
21591;SDS011;10958;50.892;3.992;2022-11-04T00:57:18;5.97;;;1.60;;
21591;SDS011;10958;50.892;3.992;2022-11-04T00:59:47;9.23;;;1.83;;
21591;SDS011;10958;50.892;3.992;2022-11-04T01:02:12;3.35;;;1.35;;
21591;SDS011;10958;50.892;3.992;2022-11-04T01:04:39;7.03;;;1.60;;
21591;SDS011;10958;50.892;3.992;2022-11-04T01:07:07;6.72;;;1.35;;
21591;SDS011;10958;50.892;3.992;2022-11-04T01:09:33;7.75;;;1.90;;
21591;SDS011;10958;50.892;3.992;2022-11-04T01:12:01;6.70;;;1.58;;
21591;SDS011;10958;50.892;3.992;2022-11-04T01:14:30;8.13;;;1.50;;
21591;SDS011;10958;50.892;3.992;2022-11-04T01:16:55;4.18;;;1.40;;
21591;SDS011;10958;50.892;3.992;2022-11-04T01:19:21;11.60;;;1.92;;
21591;SDS011;10958;50.892;3.992;2022-11-04T01:21:50;7.03;;;1.38;;
21591;SDS011;10958;50.892;3.992;2022-11-04T01:24:16;5.80;;;1.65;;
21591;SDS011;10958;50.892;3.992;2022-11-04T01:26:43;5.90;;;1.67;;
21591;SDS011;10958;50.892;3.992;2022-11-04T01:29:08;8.73;;;1.83;;
21591;SDS011;10958;50.892;3.992;2022-11-04T01:31:34;9.50;;;1.83;;
21591;SDS011;10958;50.892;3.992;2022-11-04T01:34:02;8.75;;;1.70;;
21591;SDS011;10958;50.892;3.992;2022-11-04T01:36:28;6.95;;;1.80;;
21591;SDS011;10958;50.892;3.992;2022-11-04T01:38:54;4.28;;;1.30;;
21591;SDS011;10958;50.892;3.992;2022-11-04T01:41:23;7.07;;;1.85;;
21591;SDS011;10958;50.892;3.992;2022-11-04T01:43:55;6.18;;;1.60;;
21591;SDS011;10958;50.892;3.992;2022-11-04T01:46:24;10.05;;;1.70;;
21591;SDS011;10958;50.892;3.992;2022-11-04T01:48:50;6.53;;;1.77;;
21591;SDS011;10958;50.892;3.992;2022-11-04T01:51:18;10.50;;;2.20;;
21591;SDS011;10958;50.892;3.992;2022-11-04T01:53:45;11.77;;;2.15;;
21591;SDS011;10958;50.892;3.992;2022-11-04T01:56:12;9.02;;;1.65;;
21591;SDS011;10958;50.892;3.992;2022-11-04T01:58:42;8.80;;;1.80;;
21591;SDS011;10958;50.892;3.992;2022-11-04T02:01:14;9.05;;;1.55;;
21591;SDS011;10958;50.892;3.992;2022-11-04T02:03:44;7.13;;;1.77;;
21591;SDS011;10958;50.892;3.992;2022-11-04T02:06:12;5.18;;;1.45;;
21591;SDS011;10958;50.892;3.992;2022-11-04T02:08:40;7.00;;;1.80;;
21591;SDS011;10958;50.892;3.992;2022-11-04T02:11:07;7.78;;;1.50;;
21591;SDS011;10958;50.892;3.992;2022-11-04T02:13:32;10.63;;;1.75;;
21591;SDS011;10958;50.892;3.992;2022-11-04T02:38:06;10.15;;;1.90;;
21591;SDS011;10958;50.892;3.992;2022-11-04T02:46:23;13.63;;;1.98;;
21591;SDS011;10958;50.892;3.992;2022-11-04T02:49:15;10.13;;;1.65;;
21591;SDS011;10958;50.892;3.992;2022-11-04T02:54:28;10.52;;;2.00;;
21591;SDS011;10958;50.892;3.992;2022-11-04T02:57:00;10.05;;;2.10;;
21591;SDS011;10958;50.892;3.992;2022-11-04T03:02:18;9.63;;;2.42;;
21591;SDS011;10958;50.892;3.992;2022-11-04T03:04:49;9.43;;;2.20;;
21591;SDS011;10958;50.892;3.992;2022-11-04T03:07:21;9.55;;;1.92;;
21591;SDS011;10958;50.892;3.992;2022-11-04T03:09:54;11.35;;;1.92;;
21591;SDS011;10958;50.892;3.992;2022-11-04T03:12:27;9.70;;;2.30;;
21591;SDS011;10958;50.892;3.992;2022-11-04T03:15:00;13.13;;;2.33;;
21591;SDS011;10958;50.892;3.992;2022-11-04T03:17:34;5.55;;;1.90;;
21591;SDS011;10958;50.892;3.992;2022-11-04T03:20:06;8.30;;;2.25;;
21591;SDS011;10958;50.892;3.992;2022-11-04T03:22:38;9.82;;;2.15;;
21591;SDS011;10958;50.892;3.992;2022-11-04T03:25:05;10.13;;;2.72;;
21591;SDS011;10958;50.892;3.992;2022-11-04T03:27:49;8.13;;;2.10;;
21591;SDS011;10958;50.892;3.992;2022-11-04T03:30:22;6.93;;;2.13;;
21591;SDS011;10958;50.892;3.992;2022-11-04T03:35:55;5.90;;;2.00;;
21591;SDS011;10958;50.892;3.992;2022-11-04T03:38:21;9.82;;;2.65;;
21591;SDS011;10958;50.892;3.992;2022-11-04T03:40:47;10.57;;;2.70;;
21591;SDS011;10958;50.892;3.992;2022-11-04T03:43:23;8.23;;;2.30;;
21591;SDS011;10958;50.892;3.992;2022-11-04T03:45:52;9.67;;;2.57;;
21591;SDS011;10958;50.892;3.992;2022-11-04T03:48:18;13.75;;;3.20;;
21591;SDS011;10958;50.892;3.992;2022-11-04T03:50:45;9.55;;;2.38;;
21591;SDS011;10958;50.892;3.992;2022-11-04T03:53:12;12.18;;;2.67;;
21591;SDS011;10958;50.892;3.992;2022-11-04T03:58:42;6.05;;;2.45;;
21591;SDS011;10958;50.892;3.992;2022-11-04T04:06:56;8.52;;;2.85;;
21591;SDS011;10958;50.892;3.992;2022-11-04T04:09:46;8.35;;;3.17;;
21591;SDS011;10958;50.892;3.992;2022-11-04T04:12:37;11.13;;;3.03;;
21591;SDS011;10958;50.892;3.992;2022-11-04T04:15:10;11.20;;;3.13;;
21591;SDS011;10958;50.892;3.992;2022-11-04T04:17:44;11.88;;;3.33;;
21591;SDS011;10958;50.892;3.992;2022-11-04T04:20:18;11.90;;;3.10;;
21591;SDS011;10958;50.892;3.992;2022-11-04T04:22:53;10.80;;;3.28;;
21591;SDS011;10958;50.892;3.992;2022-11-04T04:25:25;9.32;;;3.13;;
21591;SDS011;10958;50.892;3.992;2022-11-04T04:28:11;7.55;;;3.30;;
21591;SDS011;10958;50.892;3.992;2022-11-04T04:30:40;10.77;;;3.10;;
21591;SDS011;10958;50.892;3.992;2022-11-04T04:33:11;15.93;;;3.47;;
21591;SDS011;10958;50.892;3.992;2022-11-04T04:35:40;10.45;;;3.80;;
21591;SDS011;10958;50.892;3.992;2022-11-04T04:38:20;10.13;;;3.53;;
21591;SDS011;10958;50.892;3.992;2022-11-04T04:41:28;12.77;;;3.08;;
21591;SDS011;10958;50.892;3.992;2022-11-04T04:44:14;11.20;;;3.85;;
21591;SDS011;10958;50.892;3.992;2022-11-04T04:47:12;13.13;;;3.35;;
21591;SDS011;10958;50.892;3.992;2022-11-04T04:52:21;5.65;;;3.05;;
21591;SDS011;10958;50.892;3.992;2022-11-04T04:54:50;7.93;;;3.40;;
21591;SDS011;10958;50.892;3.992;2022-11-04T04:57:19;9.38;;;3.20;;
21591;SDS011;10958;50.892;3.992;2022-11-04T04:59:44;7.40;;;3.03;;
21591;SDS011;10958;50.892;3.992;2022-11-04T05:02:12;8.77;;;3.13;;
21591;SDS011;10958;50.892;3.992;2022-11-04T05:04:40;5.70;;;2.80;;
21591;SDS011;10958;50.892;3.992;2022-11-04T05:07:06;9.88;;;3.10;;
21591;SDS011;10958;50.892;3.992;2022-11-04T05:12:01;10.70;;;3.20;;
21591;SDS011;10958;50.892;3.992;2022-11-04T05:14:29;14.20;;;2.72;;
21591;SDS011;10958;50.892;3.992;2022-11-04T05:16:57;8.23;;;3.00;;
21591;SDS011;10958;50.892;3.992;2022-11-04T05:19:23;9.73;;;3.50;;
21591;SDS011;10958;50.892;3.992;2022-11-04T05:21:49;7.80;;;3.28;;
21591;SDS011;10958;50.892;3.992;2022-11-04T05:24:14;8.82;;;3.70;;
21591;SDS011;10958;50.892;3.992;2022-11-04T05:26:42;6.82;;;3.38;;
21591;SDS011;10958;50.892;3.992;2022-11-04T05:29:08;12.35;;;4.63;;
21591;SDS011;10958;50.892;3.992;2022-11-04T05:31:34;10.13;;;3.50;;
21591;SDS011;10958;50.892;3.992;2022-11-04T05:34:02;10.37;;;3.63;;
21591;SDS011;10958;50.892;3.992;2022-11-04T05:36:29;5.90;;;3.53;;
21591;SDS011;10958;50.892;3.992;2022-11-04T05:38:57;10.63;;;3.60;;
21591;SDS011;10958;50.892;3.992;2022-11-04T05:41:23;9.13;;;3.83;;
21591;SDS011;10958;50.892;3.992;2022-11-04T05:43:57;12.13;;;3.67;;
21591;SDS011;10958;50.892;3.992;2022-11-04T05:46:24;10.27;;;3.50;;
21591;SDS011;10958;50.892;3.992;2022-11-04T05:48:53;10.57;;;4.00;;
21591;SDS011;10958;50.892;3.992;2022-11-04T05:51:20;8.70;;;3.13;;
21591;SDS011;10958;50.892;3.992;2022-11-04T05:53:50;8.25;;;4.10;;
21591;SDS011;10958;50.892;3.992;2022-11-04T05:56:16;13.90;;;3.90;;
21591;SDS011;10958;50.892;3.992;2022-11-04T05:58:42;9.75;;;4.05;;
21591;SDS011;10958;50.892;3.992;2022-11-04T06:03:49;13.73;;;4.30;;
21591;SDS011;10958;50.892;3.992;2022-11-04T06:06:19;9.10;;;4.32;;
21591;SDS011;10958;50.892;3.992;2022-11-04T06:08:45;13.10;;;4.00;;
21591;SDS011;10958;50.892;3.992;2022-11-04T06:11:11;11.48;;;3.45;;
21591;SDS011;10958;50.892;3.992;2022-11-04T06:13:37;10.90;;;3.10;;
21591;SDS011;10958;50.892;3.992;2022-11-04T06:16:03;6.93;;;3.30;;
21591;SDS011;10958;50.892;3.992;2022-11-04T06:18:29;11.10;;;3.30;;
21591;SDS011;10958;50.892;3.992;2022-11-04T06:23:41;10.57;;;3.42;;
21591;SDS011;10958;50.892;3.992;2022-11-04T06:26:08;12.23;;;3.58;;
21591;SDS011;10958;50.892;3.992;2022-11-04T06:28:38;10.10;;;4.13;;
21591;SDS011;10958;50.892;3.992;2022-11-04T06:31:05;8.77;;;3.65;;
21591;SDS011;10958;50.892;3.992;2022-11-04T06:33:32;10.43;;;3.50;;
21591;SDS011;10958;50.892;3.992;2022-11-04T06:35:58;12.07;;;3.45;;
21591;SDS011;10958;50.892;3.992;2022-11-04T06:38:28;17.65;;;4.00;;
21591;SDS011;10958;50.892;3.992;2022-11-04T06:40:56;9.98;;;3.60;;
21591;SDS011;10958;50.892;3.992;2022-11-04T06:43:22;7.90;;;3.75;;
21591;SDS011;10958;50.892;3.992;2022-11-04T06:45:52;11.40;;;3.97;;
21591;SDS011;10958;50.892;3.992;2022-11-04T06:48:18;6.65;;;3.72;;
21591;SDS011;10958;50.892;3.992;2022-11-04T06:50:44;12.38;;;3.90;;
21591;SDS011;10958;50.892;3.992;2022-11-04T06:53:09;10.07;;;3.17;;
21591;SDS011;10958;50.892;3.992;2022-11-04T06:55:35;9.48;;;3.78;;
21591;SDS011;10958;50.892;3.992;2022-11-04T06:58:01;9.68;;;3.70;;
21591;SDS011;10958;50.892;3.992;2022-11-04T07:00:26;7.85;;;3.72;;
21591;SDS011;10958;50.892;3.992;2022-11-04T07:02:52;10.45;;;3.72;;
21591;SDS011;10958;50.892;3.992;2022-11-04T07:05:18;8.52;;;3.20;;
21591;SDS011;10958;50.892;3.992;2022-11-04T07:07:44;8.20;;;3.28;;
21591;SDS011;10958;50.892;3.992;2022-11-04T07:10:12;10.27;;;3.60;;
21591;SDS011;10958;50.892;3.992;2022-11-04T07:12:37;9.82;;;4.03;;
21591;SDS011;10958;50.892;3.992;2022-11-04T07:15:05;11.63;;;3.92;;
21591;SDS011;10958;50.892;3.992;2022-11-04T07:17:31;11.27;;;4.07;;
21591;SDS011;10958;50.892;3.992;2022-11-04T07:19:57;13.45;;;4.75;;
21591;SDS011;10958;50.892;3.992;2022-11-04T07:22:22;8.20;;;3.38;;
21591;SDS011;10958;50.892;3.992;2022-11-04T07:24:48;9.40;;;3.53;;
21591;SDS011;10958;50.892;3.992;2022-11-04T07:27:14;14.23;;;4.45;;
21591;SDS011;10958;50.892;3.992;2022-11-04T07:29:39;9.60;;;4.00;;
21591;SDS011;10958;50.892;3.992;2022-11-04T07:32:05;10.60;;;3.70;;
21591;SDS011;10958;50.892;3.992;2022-11-04T07:34:31;9.05;;;4.10;;
21591;SDS011;10958;50.892;3.992;2022-11-04T07:36:57;12.75;;;4.78;;
21591;SDS011;10958;50.892;3.992;2022-11-04T07:39:22;10.07;;;3.95;;
21591;SDS011;10958;50.892;3.992;2022-11-04T07:41:48;9.90;;;3.72;;
21591;SDS011;10958;50.892;3.992;2022-11-04T07:44:13;10.48;;;3.90;;
21591;SDS011;10958;50.892;3.992;2022-11-04T07:46:39;9.55;;;3.90;;
21591;SDS011;10958;50.892;3.992;2022-11-04T07:49:05;15.05;;;4.65;;
21591;SDS011;10958;50.892;3.992;2022-11-04T07:51:34;10.65;;;3.50;;
21591;SDS011;10958;50.892;3.992;2022-11-04T07:54:00;9.77;;;3.30;;
21591;SDS011;10958;50.892;3.992;2022-11-04T07:56:28;8.95;;;4.28;;
21591;SDS011;10958;50.892;3.992;2022-11-04T07:58:54;13.13;;;4.07;;
21591;SDS011;10958;50.892;3.992;2022-11-04T08:01:20;11.07;;;5.03;;
21591;SDS011;10958;50.892;3.992;2022-11-04T08:03:50;8.45;;;5.05;;
21591;SDS011;10958;50.892;3.992;2022-11-04T08:06:17;14.18;;;4.88;;
21591;SDS011;10958;50.892;3.992;2022-11-04T08:08:44;12.18;;;5.07;;
21591;SDS011;10958;50.892;3.992;2022-11-04T08:11:16;11.93;;;5.70;;
21591;SDS011;10958;50.892;3.992;2022-11-04T08:13:43;14.80;;;5.63;;
21591;SDS011;10958;50.892;3.992;2022-11-04T08:16:11;11.82;;;6.22;;
21591;SDS011;10958;50.892;3.992;2022-11-04T08:18:44;10.88;;;6.20;;
21591;SDS011;10958;50.892;3.992;2022-11-04T08:21:11;14.32;;;5.70;;
21591;SDS011;10958;50.892;3.992;2022-11-04T08:23:37;12.82;;;5.82;;
21591;SDS011;10958;50.892;3.992;2022-11-04T08:26:09;13.00;;;5.53;;
21591;SDS011;10958;50.892;3.992;2022-11-04T08:28:42;11.15;;;5.30;;
21591;SDS011;10958;50.892;3.992;2022-11-04T08:31:09;10.95;;;4.82;;
21591;SDS011;10958;50.892;3.992;2022-11-04T08:33:40;14.15;;;4.95;;
21591;SDS011;10958;50.892;3.992;2022-11-04T08:36:07;12.20;;;4.72;;
21591;SDS011;10958;50.892;3.992;2022-11-04T08:38:38;10.90;;;4.55;;
21591;SDS011;10958;50.892;3.992;2022-11-04T08:41:05;15.23;;;4.60;;
21591;SDS011;10958;50.892;3.992;2022-11-04T08:43:32;14.43;;;4.35;;
21591;SDS011;10958;50.892;3.992;2022-11-04T08:45:59;12.00;;;4.25;;
21591;SDS011;10958;50.892;3.992;2022-11-04T08:48:25;12.43;;;3.90;;
21591;SDS011;10958;50.892;3.992;2022-11-04T08:50:51;10.98;;;4.28;;
21591;SDS011;10958;50.892;3.992;2022-11-04T08:53:23;12.77;;;3.67;;
21591;SDS011;10958;50.892;3.992;2022-11-04T08:55:49;8.85;;;4.07;;
21591;SDS011;10958;50.892;3.992;2022-11-04T08:58:16;14.20;;;4.55;;
21591;SDS011;10958;50.892;3.992;2022-11-04T09:00:42;9.95;;;3.58;;
21591;SDS011;10958;50.892;3.992;2022-11-04T09:03:08;9.85;;;3.75;;
21591;SDS011;10958;50.892;3.992;2022-11-04T09:05:37;11.57;;;4.30;;
21591;SDS011;10958;50.892;3.992;2022-11-04T09:08:13;10.57;;;3.90;;
21591;SDS011;10958;50.892;3.992;2022-11-04T09:10:44;14.82;;;3.92;;
21591;SDS011;10958;50.892;3.992;2022-11-04T09:13:14;14.43;;;4.75;;
21591;SDS011;10958;50.892;3.992;2022-11-04T09:15:40;8.43;;;3.80;;
21591;SDS011;10958;50.892;3.992;2022-11-04T09:18:06;10.98;;;4.05;;
21591;SDS011;10958;50.892;3.992;2022-11-04T09:20:32;15.10;;;4.30;;
21591;SDS011;10958;50.892;3.992;2022-11-04T09:22:58;11.15;;;4.50;;
21591;SDS011;10958;50.892;3.992;2022-11-04T09:25:25;16.83;;;4.75;;
21591;SDS011;10958;50.892;3.992;2022-11-04T09:27:51;16.73;;;5.32;;
21591;SDS011;10958;50.892;3.992;2022-11-04T09:30:17;15.68;;;4.80;;
21591;SDS011;10958;50.892;3.992;2022-11-04T09:32:43;16.35;;;5.18;;
21591;SDS011;10958;50.892;3.992;2022-11-04T09:35:09;13.40;;;4.80;;
21591;SDS011;10958;50.892;3.992;2022-11-04T09:37:34;12.93;;;5.18;;
21591;SDS011;10958;50.892;3.992;2022-11-04T09:40:00;22.38;;;8.70;;
21591;SDS011;10958;50.892;3.992;2022-11-04T09:45:16;11.00;;;4.60;;
21591;SDS011;10958;50.892;3.992;2022-11-04T09:47:44;10.88;;;4.90;;
21591;SDS011;10958;50.892;3.992;2022-11-04T09:50:31;10.82;;;5.05;;
21591;SDS011;10958;50.892;3.992;2022-11-04T09:53:12;14.02;;;4.88;;
21591;SDS011;10958;50.892;3.992;2022-11-04T09:55:49;12.70;;;4.50;;
21591;SDS011;10958;50.892;3.992;2022-11-04T09:58:21;13.18;;;4.53;;
21591;SDS011;10958;50.892;3.992;2022-11-04T10:00:50;10.30;;;4.65;;
21591;SDS011;10958;50.892;3.992;2022-11-04T10:06:34;15.30;;;7.15;;
21591;SDS011;10958;50.892;3.992;2022-11-04T10:09:15;17.98;;;9.77;;
21591;SDS011;10958;50.892;3.992;2022-11-04T10:14:31;9.50;;;4.55;;
21591;SDS011;10958;50.892;3.992;2022-11-04T10:20:14;15.80;;;4.90;;
21591;SDS011;10958;50.892;3.992;2022-11-04T10:25:31;12.50;;;6.40;;
21591;SDS011;10958;50.892;3.992;2022-11-04T10:28:16;10.20;;;5.68;;
21591;SDS011;10958;50.892;3.992;2022-11-04T10:30:43;16.17;;;7.13;;
21591;SDS011;10958;50.892;3.992;2022-11-04T10:33:34;12.63;;;7.00;;
21591;SDS011;10958;50.892;3.992;2022-11-04T10:36:08;15.93;;;7.57;;
21591;SDS011;10958;50.892;3.992;2022-11-04T10:41:29;14.45;;;8.82;;
21591;SDS011;10958;50.892;3.992;2022-11-04T10:44:09;16.35;;;9.27;;
21591;SDS011;10958;50.892;3.992;2022-11-04T10:52:31;16.33;;;10.52;;
21591;SDS011;10958;50.892;3.992;2022-11-04T10:54:58;18.70;;;11.18;;
21591;SDS011;10958;50.892;3.992;2022-11-04T10:57:24;20.58;;;11.85;;
21591;SDS011;10958;50.892;3.992;2022-11-04T10:59:54;20.35;;;12.85;;
21591;SDS011;10958;50.892;3.992;2022-11-04T11:03:32;18.10;;;12.03;;
21591;SDS011;10958;50.892;3.992;2022-11-04T11:08:59;19.25;;;10.82;;
21591;SDS011;10958;50.892;3.992;2022-11-04T11:11:47;14.57;;;9.50;;
21591;SDS011;10958;50.892;3.992;2022-11-04T11:14:19;20.48;;;11.85;;
21591;SDS011;10958;50.892;3.992;2022-11-04T11:17:21;15.98;;;10.20;;
21591;SDS011;10958;50.892;3.992;2022-11-04T11:19:52;19.95;;;12.60;;
21591;SDS011;10958;50.892;3.992;2022-11-04T11:22:35;16.83;;;11.05;;
21591;SDS011;10958;50.892;3.992;2022-11-04T11:30:55;17.25;;;10.02;;
21591;SDS011;10958;50.892;3.992;2022-11-04T11:35:57;12.98;;;9.50;;
21591;SDS011;10958;50.892;3.992;2022-11-04T11:38:28;16.40;;;12.17;;
21591;SDS011;10958;50.892;3.992;2022-11-04T11:41:11;17.45;;;12.25;;
21591;SDS011;10958;50.892;3.992;2022-11-04T11:43:48;15.30;;;10.60;;
21591;SDS011;10958;50.892;3.992;2022-11-04T11:46:22;17.90;;;10.45;;
21591;SDS011;10958;50.892;3.992;2022-11-04T11:48:53;16.15;;;8.75;;
21591;SDS011;10958;50.892;3.992;2022-11-04T11:51:26;13.93;;;8.20;;
21591;SDS011;10958;50.892;3.992;2022-11-04T11:54:15;14.23;;;9.77;;
21591;SDS011;10958;50.892;3.992;2022-11-04T11:56:45;20.33;;;10.07;;
21591;SDS011;10958;50.892;3.992;2022-11-04T11:59:19;21.40;;;10.90;;
21591;SDS011;10958;50.892;3.992;2022-11-04T12:02:19;14.65;;;9.45;;
21591;SDS011;10958;50.892;3.992;2022-11-04T12:05:04;13.60;;;9.15;;
21591;SDS011;10958;50.892;3.992;2022-11-04T12:21:26;16.33;;;10.63;;
21591;SDS011;10958;50.892;3.992;2022-11-04T12:24:05;19.13;;;11.23;;
21591;SDS011;10958;50.892;3.992;2022-11-04T12:26:40;25.63;;;13.23;;
21591;SDS011;10958;50.892;3.992;2022-11-04T12:29:40;18.30;;;11.68;;
21591;SDS011;10958;50.892;3.992;2022-11-04T12:40:41;15.75;;;9.43;;
21591;SDS011;10958;50.892;3.992;2022-11-04T12:43:23;17.10;;;11.40;;
21591;SDS011;10958;50.892;3.992;2022-11-04T12:51:50;14.80;;;9.32;;
21591;SDS011;10958;50.892;3.992;2022-11-04T13:00:00;14.13;;;9.55;;
21591;SDS011;10958;50.892;3.992;2022-11-04T13:11:11;13.27;;;8.18;;
21591;SDS011;10958;50.892;3.992;2022-11-04T13:14:11;12.48;;;8.95;;
21591;SDS011;10958;50.892;3.992;2022-11-04T13:16:40;17.70;;;10.93;;
21591;SDS011;10958;50.892;3.992;2022-11-04T13:19:28;17.50;;;9.18;;
21591;SDS011;10958;50.892;3.992;2022-11-04T13:22:04;17.23;;;10.10;;
21591;SDS011;10958;50.892;3.992;2022-11-04T13:24:34;23.63;;;12.65;;
21591;SDS011;10958;50.892;3.992;2022-11-04T13:27:26;26.88;;;11.80;;
21591;SDS011;10958;50.892;3.992;2022-11-04T13:32:39;14.18;;;7.60;;
21591;SDS011;10958;50.892;3.992;2022-11-04T13:38:06;17.10;;;7.45;;
21591;SDS011;10958;50.892;3.992;2022-11-04T13:40:41;11.07;;;6.82;;
21591;SDS011;10958;50.892;3.992;2022-11-04T13:43:32;12.80;;;5.32;;
21591;SDS011;10958;50.892;3.992;2022-11-04T13:46:03;11.55;;;5.80;;
21591;SDS011;10958;50.892;3.992;2022-11-04T13:48:59;10.50;;;5.55;;
21591;SDS011;10958;50.892;3.992;2022-11-04T13:51:44;11.73;;;4.95;;
21591;SDS011;10958;50.892;3.992;2022-11-04T13:54:57;1.80;;;0.90;;
21591;SDS011;10958;50.892;3.992;2022-11-04T14:16:05;1.20;;;0.60;;
21591;SDS011;10958;50.892;3.992;2022-11-04T14:18:35;1.52;;;0.70;;
21591;SDS011;10958;50.892;3.992;2022-11-04T14:21:10;3.00;;;0.70;;
21591;SDS011;10958;50.892;3.992;2022-11-04T14:23:46;5.28;;;0.93;;
21591;SDS011;10958;50.892;3.992;2022-11-04T14:26:20;2.80;;;1.13;;
21591;SDS011;10958;50.892;3.992;2022-11-04T14:28:59;2.60;;;1.63;;
21591;SDS011;10958;50.892;3.992;2022-11-04T14:31:38;6.88;;;3.30;;
21591;SDS011;10958;50.892;3.992;2022-11-04T14:34:07;3.58;;;1.80;;
21591;SDS011;10958;50.892;3.992;2022-11-04T14:37:43;2.05;;;1.08;;
21591;SDS011;10958;50.892;3.992;2022-11-04T14:39:54;5.13;;;2.00;;
21591;SDS011;10958;50.892;3.992;2022-11-04T14:45:32;4.18;;;2.60;;
21591;SDS011;10958;50.892;3.992;2022-11-04T14:48:11;4.70;;;2.05;;
21591;SDS011;10958;50.892;3.992;2022-11-04T14:50:45;2.10;;;1.67;;
21591;SDS011;10958;50.892;3.992;2022-11-04T14:53:18;2.70;;;1.10;;
21591;SDS011;10958;50.892;3.992;2022-11-04T14:56:01;2.85;;;1.20;;
21591;SDS011;10958;50.892;3.992;2022-11-04T15:01:28;3.83;;;1.13;;
21591;SDS011;10958;50.892;3.992;2022-11-04T15:03:57;4.40;;;1.30;;
21591;SDS011;10958;50.892;3.992;2022-11-04T15:06:38;6.15;;;1.95;;
21591;SDS011;10958;50.892;3.992;2022-11-04T15:09:16;3.55;;;1.60;;
21591;SDS011;10958;50.892;3.992;2022-11-04T15:11:47;3.75;;;2.45;;
21591;SDS011;10958;50.892;3.992;2022-11-04T15:14:31;4.05;;;2.10;;
21591;SDS011;10958;50.892;3.992;2022-11-04T15:17:01;3.22;;;1.67;;
21591;SDS011;10958;50.892;3.992;2022-11-04T15:19:33;2.75;;;1.20;;
21591;SDS011;10958;50.892;3.992;2022-11-04T15:22:01;5.65;;;1.65;;
21591;SDS011;10958;50.892;3.992;2022-11-04T15:24:28;2.87;;;1.50;;
21591;SDS011;10958;50.892;3.992;2022-11-04T15:27:01;5.95;;;1.98;;
21591;SDS011;10958;50.892;3.992;2022-11-04T15:29:29;4.30;;;1.77;;
21591;SDS011;10958;50.892;3.992;2022-11-04T15:31:57;5.00;;;1.73;;
21591;SDS011;10958;50.892;3.992;2022-11-04T15:34:27;5.47;;;2.58;;
21591;SDS011;10958;50.892;3.992;2022-11-04T15:36:58;5.63;;;2.70;;
21591;SDS011;10958;50.892;3.992;2022-11-04T15:39:30;4.88;;;2.10;;
21591;SDS011;10958;50.892;3.992;2022-11-04T15:42:05;7.22;;;1.90;;
21591;SDS011;10958;50.892;3.992;2022-11-04T15:44:52;6.38;;;1.80;;
21591;SDS011;10958;50.892;3.992;2022-11-04T15:47:21;3.50;;;1.25;;
21591;SDS011;10958;50.892;3.992;2022-11-04T15:49:52;4.45;;;1.25;;
21591;SDS011;10958;50.892;3.992;2022-11-04T15:52:29;4.63;;;1.25;;
21591;SDS011;10958;50.892;3.992;2022-11-04T15:55:01;3.22;;;1.58;;
21591;SDS011;10958;50.892;3.992;2022-11-04T15:57:32;4.07;;;1.43;;
21591;SDS011;10958;50.892;3.992;2022-11-04T16:00:05;4.85;;;2.00;;
21591;SDS011;10958;50.892;3.992;2022-11-04T16:02:34;3.05;;;1.30;;
21591;SDS011;10958;50.892;3.992;2022-11-04T16:05:23;3.42;;;1.55;;
21591;SDS011;10958;50.892;3.992;2022-11-04T16:11:06;5.00;;;1.40;;
21591;SDS011;10958;50.892;3.992;2022-11-04T16:13:37;4.88;;;2.00;;
21591;SDS011;10958;50.892;3.992;2022-11-04T16:16:17;6.00;;;2.20;;
21591;SDS011;10958;50.892;3.992;2022-11-04T16:18:53;5.03;;;2.28;;
21591;SDS011;10958;50.892;3.992;2022-11-04T16:21:28;4.00;;;1.88;;
21591;SDS011;10958;50.892;3.992;2022-11-04T16:26:46;3.97;;;1.73;;
21591;SDS011;10958;50.892;3.992;2022-11-04T16:34:36;9.10;;;2.20;;
21591;SDS011;10958;50.892;3.992;2022-11-04T16:37:03;8.23;;;2.00;;
21591;SDS011;10958;50.892;3.992;2022-11-04T16:39:29;5.38;;;1.70;;
21591;SDS011;10958;50.892;3.992;2022-11-04T16:41:56;6.15;;;1.88;;
21591;SDS011;10958;50.892;3.992;2022-11-04T16:44:22;7.20;;;4.28;;
21591;SDS011;10958;50.892;3.992;2022-11-04T16:46:49;11.05;;;4.68;;
21591;SDS011;10958;50.892;3.992;2022-11-04T16:49:17;7.25;;;3.50;;
21591;SDS011;10958;50.892;3.992;2022-11-04T16:51:46;6.55;;;2.65;;
21591;SDS011;10958;50.892;3.992;2022-11-04T16:54:13;5.45;;;2.80;;
21591;SDS011;10958;50.892;3.992;2022-11-04T16:56:41;5.95;;;3.60;;
21591;SDS011;10958;50.892;3.992;2022-11-04T16:59:10;8.02;;;3.85;;
21591;SDS011;10958;50.892;3.992;2022-11-04T17:01:36;10.68;;;4.47;;
21591;SDS011;10958;50.892;3.992;2022-11-04T17:04:03;6.72;;;2.90;;
21591;SDS011;10958;50.892;3.992;2022-11-04T17:06:33;5.82;;;2.80;;
21591;SDS011;10958;50.892;3.992;2022-11-04T17:08:59;8.95;;;3.50;;
21591;SDS011;10958;50.892;3.992;2022-11-04T17:11:25;9.20;;;3.90;;
21591;SDS011;10958;50.892;3.992;2022-11-04T17:16:20;10.75;;;5.95;;
21591;SDS011;10958;50.892;3.992;2022-11-04T17:18:45;11.70;;;5.40;;
21591;SDS011;10958;50.892;3.992;2022-11-04T17:21:12;9.60;;;5.70;;
21591;SDS011;10958;50.892;3.992;2022-11-04T17:23:41;7.22;;;4.80;;
21591;SDS011;10958;50.892;3.992;2022-11-04T17:26:08;9.68;;;5.07;;
21591;SDS011;10958;50.892;3.992;2022-11-04T17:28:38;7.97;;;4.20;;
21591;SDS011;10958;50.892;3.992;2022-11-04T17:31:08;8.97;;;5.33;;
21591;SDS011;10958;50.892;3.992;2022-11-04T17:33:40;10.05;;;5.18;;
21591;SDS011;10958;50.892;3.992;2022-11-04T17:36:05;11.88;;;5.93;;
21591;SDS011;10958;50.892;3.992;2022-11-04T17:38:34;14.77;;;7.40;;
21591;SDS011;10958;50.892;3.992;2022-11-04T17:40:59;17.05;;;10.43;;
21591;SDS011;10958;50.892;3.992;2022-11-04T17:43:43;12.48;;;7.95;;
21591;SDS011;10958;50.892;3.992;2022-11-04T17:46:25;16.00;;;9.65;;
21591;SDS011;10958;50.892;3.992;2022-11-04T17:49:21;13.50;;;8.73;;
21591;SDS011;10958;50.892;3.992;2022-11-04T17:51:50;15.50;;;11.20;;
21591;SDS011;10958;50.892;3.992;2022-11-04T17:54:17;15.00;;;9.93;;
21591;SDS011;10958;50.892;3.992;2022-11-04T17:56:43;13.75;;;8.38;;
21591;SDS011;10958;50.892;3.992;2022-11-04T17:59:09;13.43;;;7.38;;
21591;SDS011;10958;50.892;3.992;2022-11-04T18:01:38;11.95;;;6.47;;
21591;SDS011;10958;50.892;3.992;2022-11-04T18:04:04;11.80;;;6.90;;